Time;durP1;ratioP1;P1;durP2;ratioP2;P2;SDS_P1;SDS_P2;PMS_P1;PMS_P2;Temp;Humidity;BMP_temperature;BMP_pressure;BME280_temperature;BME280_humidity;BME280_pressure;Samples;Min_cycle;Max_cycle;Signal;HPM_P1;HPM_P2
2022/02/06 00:00:08;;;;;;;7.95;1.25;;;8.50;99.90;;;;;;5034838;28;20162;-81
2022/02/06 00:02:37;;;;;;;5.60;2.00;;;8.50;99.90;;;;;;5016404;28;20198;-86
2022/02/06 00:05:03;;;;;;;4.78;1.50;;;8.60;99.90;;;;;;5034069;28;20164;-79
2022/02/06 00:07:30;;;;;;;4.15;1.92;;;8.50;99.90;;;;;;5033896;28;20188;-82
2022/02/06 00:09:56;;;;;;;3.40;1.30;;;8.40;99.90;;;;;;5034074;28;20164;-85
2022/02/06 00:12:21;;;;;;;8.43;1.27;;;8.30;99.90;;;;;;5033380;28;20224;-77
2022/02/06 00:14:48;;;;;;;5.28;1.30;;;8.30;99.90;;;;;;5034270;28;20167;-78
2022/02/06 00:17:14;;;;;;;5.82;1.33;;;8.40;99.90;;;;;;5034277;28;20180;-77
2022/02/06 00:19:42;;;;;;;4.90;1.75;;;8.40;99.90;;;;;;5033967;28;20502;-80
2022/02/06 00:22:11;;;;;;;6.38;2.17;;;8.50;99.90;;;;;;5034018;28;20667;-82
2022/02/06 00:25:14;;;;;;;4.15;1.55;;;8.40;99.90;;;;;;5033815;28;20156;-77
2022/02/06 00:27:31;;;;;;;8.70;1.85;;;8.50;99.90;;;;;;5033471;28;20179;-80
2022/02/06 00:30:07;;;;;;;6.60;1.77;;;8.50;99.90;;;;;;5015801;28;20694;-84
2022/02/06 00:32:44;;;;;;;6.47;1.83;;;8.40;99.90;;;;;;5035057;28;20203;-78
2022/02/06 00:35:22;;;;;;;3.97;1.50;;;8.30;99.90;;;;;;5046367;28;20160;-80
2022/02/06 00:43:07;;;;;;;9.88;1.63;;;8.30;99.90;;;;;;5043328;28;20199;-81
2022/02/06 00:45:33;;;;;;;4.88;1.48;;;8.50;99.90;;;;;;5037462;28;20195;-81
2022/02/06 00:47:58;;;;;;;5.65;2.03;;;8.50;99.90;;;;;;5037903;28;20201;-79
2022/02/06 00:50:24;;;;;;;3.47;1.38;;;8.60;99.90;;;;;;5036794;28;20190;-83
2022/02/06 00:53:01;;;;;;;3.70;1.30;;;8.60;99.90;;;;;;5036149;28;20241;-85
2022/02/06 00:55:27;;;;;;;5.03;1.25;;;8.60;99.90;;;;;;5036664;28;20255;-79
2022/02/06 00:57:53;;;;;;;8.02;2.00;;;8.50;99.90;;;;;;5036907;28;20656;-82
2022/02/06 01:00:18;;;;;;;5.65;1.63;;;8.50;99.90;;;;;;5036067;28;20175;-87
2022/02/06 01:02:44;;;;;;;3.97;1.15;;;8.50;99.90;;;;;;5036073;28;20652;-86
2022/02/06 01:05:10;;;;;;;3.42;1.85;;;8.50;99.90;;;;;;5036605;28;20259;-87
2022/02/06 01:07:35;;;;;;;7.78;2.17;;;8.50;99.90;;;;;;5036546;28;20601;-81
2022/02/06 01:10:01;;;;;;;5.43;1.63;;;8.50;99.90;;;;;;5036005;28;20164;-78
2022/02/06 01:12:30;;;;;;;8.80;1.95;;;8.40;99.90;;;;;;5017916;28;20220;-78
2022/02/06 01:15:08;;;;;;;3.83;1.05;;;8.50;99.90;;;;;;5018582;28;20287;-78
2022/02/06 01:18:01;;;;;;;3.22;1.40;;;8.50;99.90;;;;;;5035694;28;20163;-80
2022/02/06 01:20:26;;;;;;;6.28;1.50;;;8.50;99.90;;;;;;5035204;28;20168;-86
2022/02/06 01:23:01;;;;;;;6.90;1.65;;;8.50;99.90;;;;;;5035564;28;20214;-81
2022/02/06 01:25:32;;;;;;;8.30;1.90;;;8.40;99.90;;;;;;5035712;28;20156;-83
2022/02/06 01:28:20;;;;;;;6.40;1.17;;;8.50;99.90;;;;;;5036038;28;20167;-84
2022/02/06 01:30:53;;;;;;;3.35;1.55;;;8.60;99.90;;;;;;5035846;28;20179;-77
2022/02/06 01:33:27;;;;;;;10.40;1.58;;;8.50;99.90;;;;;;5035872;28;20211;-78
2022/02/06 01:38:30;;;;;;;6.50;1.90;;;8.50;99.90;;;;;;5035915;28;20262;-79
2022/02/06 01:41:10;;;;;;;9.40;1.55;;;8.60;99.90;;;;;;5035404;28;20194;-87
2022/02/06 01:43:42;;;;;;;9.80;1.60;;;8.60;99.90;;;;;;5017637;28;20188;-88
2022/02/06 01:46:21;;;;;;;4.40;1.60;;;8.60;99.90;;;;;;5035499;28;20613;-80
2022/02/06 02:05:43;;;;;;;6.78;1.50;;;8.40;99.90;;;;;;5035611;28;20167;-82
2022/02/06 02:08:44;;;;;;;6.50;1.80;;;8.40;99.90;;;;;;5035536;28;20175;-83
2022/02/06 02:45:37;;;;;;;6.65;1.42;;;8.30;99.90;;;;;;5034531;28;20176;-84
2022/02/06 02:48:05;;;;;;;7.78;1.65;;;8.30;99.90;;;;;;5034093;28;20170;-86
2022/02/06 02:50:34;;;;;;;9.45;1.45;;;8.30;99.90;;;;;;5034343;28;20167;-87
2022/02/06 02:58:49;;;;;;;4.10;1.38;;;8.50;99.90;;;;;;5016851;28;20172;-79
2022/02/06 03:01:36;;;;;;;4.53;1.55;;;8.60;99.90;;;;;;5034662;28;20167;-87
2022/02/06 03:04:01;;;;;;;6.80;1.48;;;8.50;99.90;;;;;;5034799;28;20245;-83
2022/02/06 03:06:27;;;;;;;3.70;1.45;;;8.40;99.90;;;;;;5034955;28;20168;-78
2022/02/06 03:08:54;;;;;;;4.43;1.75;;;8.40;99.90;;;;;;5035089;28;20163;-86
2022/02/06 03:11:20;;;;;;;7.82;1.60;;;8.40;99.90;;;;;;5034771;28;20159;-78
2022/02/06 03:18:45;;;;;;;5.90;1.98;;;8.20;99.90;;;;;;5034397;28;20210;-86
2022/02/06 03:21:18;;;;;;;7.65;1.65;;;8.20;99.90;;;;;;5034492;28;20255;-86
2022/02/06 03:23:50;;;;;;;10.27;1.92;;;8.20;99.90;;;;;;5034988;28;20784;-85
2022/02/06 03:26:15;;;;;;;4.55;1.65;;;8.20;99.90;;;;;;5034863;28;20167;-86
2022/02/06 03:28:41;;;;;;;7.30;1.95;;;8.20;99.90;;;;;;5035001;28;20168;-86
2022/02/06 03:31:07;;;;;;;7.95;1.58;;;8.20;99.90;;;;;;5034818;28;20176;-81
2022/02/06 03:33:33;;;;;;;7.68;2.03;;;8.10;99.90;;;;;;5034521;28;20208;-87
2022/02/06 03:35:58;;;;;;;8.80;2.00;;;8.20;99.90;;;;;;5033851;28;20168;-87
2022/02/06 03:38:24;;;;;;;5.13;1.45;;;8.10;99.90;;;;;;5034271;28;20230;-87
2022/02/06 03:40:56;;;;;;;5.90;1.45;;;8.10;99.90;;;;;;5034582;28;20675;-85
2022/02/06 03:43:34;;;;;;;8.68;1.52;;;8.10;99.90;;;;;;5033928;28;20279;-82
2022/02/06 03:46:13;;;;;;;6.00;1.88;;;8.20;99.90;;;;;;5034127;28;20168;-83
2022/02/06 03:51:40;;;;;;;4.32;1.90;;;8.10;99.90;;;;;;4953397;28;20586;-86
2022/02/06 03:54:09;;;;;;;3.35;1.20;;;8.10;99.90;;;;;;5017159;28;20188;-80
2022/02/06 03:56:35;;;;;;;6.75;1.50;;;8.10;99.90;;;;;;5033660;28;20254;-86
2022/02/06 03:59:02;;;;;;;4.20;1.52;;;8.10;99.90;;;;;;5033643;28;20226;-78
2022/02/06 04:01:28;;;;;;;5.97;1.92;;;8.10;99.90;;;;;;5033599;28;20238;-82
2022/02/06 04:03:54;;;;;;;8.45;1.88;;;8.00;99.90;;;;;;5033541;28;20648;-85
2022/02/06 04:06:19;;;;;;;5.95;1.77;;;8.00;99.90;;;;;;5033659;28;20233;-78
2022/02/06 04:08:46;;;;;;;6.72;1.73;;;8.10;99.90;;;;;;5018511;28;20199;-87
2022/02/06 04:11:16;;;;;;;5.55;1.35;;;8.00;99.90;;;;;;5037533;28;20160;-82
2022/02/06 04:14:30;;;;;;;6.20;1.40;;;8.00;99.90;;;;;;5036746;28;20218;-87
2022/02/06 04:16:38;;;;;;;9.38;1.92;;;8.00;99.90;;;;;;5023538;28;21281;-88
2022/02/06 04:19:16;;;;;;;2.85;1.55;;;8.10;99.90;;;;;;5037051;28;20178;-84
2022/02/06 04:21:41;;;;;;;4.60;1.50;;;7.90;99.90;;;;;;5037639;28;20613;-86
2022/02/06 04:24:07;;;;;;;8.48;1.85;;;7.90;99.90;;;;;;5037478;28;20172;-87
2022/02/06 04:26:32;;;;;;;3.03;1.63;;;8.00;99.90;;;;;;5037952;28;20203;-80
2022/02/06 04:28:58;;;;;;;10.50;2.25;;;7.90;99.90;;;;;;5037201;28;20176;-83
2022/02/06 04:31:24;;;;;;;5.85;1.50;;;7.90;99.90;;;;;;5037596;28;20167;-87
2022/02/06 04:33:51;;;;;;;4.60;1.60;;;7.90;99.90;;;;;;5036791;28;20200;-78
2022/02/06 04:36:17;;;;;;;9.38;2.08;;;8.00;99.90;;;;;;5036802;28;20186;-79
2022/02/06 04:39:08;;;;;;;4.50;1.98;;;8.00;99.90;;;;;;5019316;28;20680;-87
2022/02/06 05:22:50;;;;;;;2.05;1.60;;;8.20;99.90;;;;;;5010858;28;20172;-86
2022/02/06 05:32:58;;;;;;;6.32;1.85;;;8.20;99.90;;;;;;5043028;28;20694;-86
2022/02/06 05:35:08;;;;;;;5.03;2.03;;;8.20;99.90;;;;;;5046584;28;20168;-78
2022/02/06 05:37:34;;;;;;;5.88;1.90;;;8.10;99.90;;;;;;5012633;28;20183;-86
2022/02/06 05:40:00;;;;;;;3.80;1.73;;;8.00;99.90;;;;;;5048893;28;20164;-79
2022/02/06 05:42:26;;;;;;;15.63;1.85;;;8.00;99.90;;;;;;5048155;28;20686;-78
2022/02/06 05:44:56;;;;;;;8.82;1.50;;;7.90;99.90;;;;;;5049954;28;20195;-77
2022/02/06 05:47:40;;;;;;;6.18;1.50;;;7.90;99.90;;;;;;5030116;28;20549;-79
2022/02/06 05:50:08;;;;;;;5.05;2.10;;;7.90;99.90;;;;;;5048676;28;20164;-83
2022/02/06 05:52:41;;;;;;;5.88;2.30;;;7.90;99.90;;;;;;5031542;28;20207;-85
2022/02/06 05:55:10;;;;;;;8.32;2.35;;;7.90;99.90;;;;;;5017409;28;20176;-85
2022/02/06 05:57:36;;;;;;;13.15;2.33;;;8.00;99.90;;;;;;5033447;28;20155;-85
2022/02/06 06:00:09;;;;;;;8.93;1.98;;;8.00;99.90;;;;;;5047099;28;20168;-85
2022/02/06 06:02:39;;;;;;;11.18;2.22;;;8.20;99.90;;;;;;5048016;28;20176;-86
2022/02/06 06:05:09;;;;;;;5.80;1.75;;;8.20;99.90;;;;;;5016699;28;20140;-80
2022/02/06 06:07:39;;;;;;;7.15;2.28;;;8.10;99.90;;;;;;5042543;28;20174;-87
2022/02/06 06:10:05;;;;;;;3.67;1.63;;;8.10;99.90;;;;;;5040617;28;20167;-85
2022/02/06 06:12:30;;;;;;;4.78;1.60;;;8.00;99.90;;;;;;5037892;28;20226;-87
2022/02/06 06:14:56;;;;;;;4.13;1.48;;;8.10;99.90;;;;;;5037280;28;20172;-79
2022/02/06 06:17:22;;;;;;;4.40;1.70;;;8.20;99.90;;;;;;5038016;28;20254;-78
2022/02/06 06:19:48;;;;;;;3.72;1.40;;;8.10;99.90;;;;;;5038792;28;20247;-84
2022/02/06 06:22:18;;;;;;;11.60;1.98;;;8.10;99.90;;;;;;5020544;28;20196;-81
2022/02/06 06:24:50;;;;;;;5.05;1.40;;;8.10;99.90;;;;;;5039086;28;20172;-87
2022/02/06 06:27:16;;;;;;;3.17;1.77;;;8.10;99.90;;;;;;5039114;28;20167;-87
2022/02/06 06:29:46;;;;;;;9.07;2.05;;;8.10;99.90;;;;;;5023269;28;20176;-86
2022/02/06 06:32:14;;;;;;;4.47;1.70;;;8.10;99.90;;;;;;5041544;28;20196;-85
2022/02/06 06:34:39;;;;;;;1.67;1.23;;;8.20;99.90;;;;;;5022478;28;20255;-78
2022/02/06 06:37:07;;;;;;;4.55;1.85;;;8.30;99.90;;;;;;5040519;28;20687;-84
2022/02/06 06:39:43;;;;;;;5.47;2.22;;;8.30;99.90;;;;;;5039263;28;20167;-87
2022/02/06 06:42:11;;;;;;;8.98;1.92;;;8.40;99.90;;;;;;5040212;28;20198;-79
2022/02/06 06:44:38;;;;;;;6.15;1.38;;;8.40;99.90;;;;;;5021019;28;20168;-78
2022/02/06 06:47:05;;;;;;;6.03;1.73;;;8.40;99.90;;;;;;5039628;28;20164;-82
2022/02/06 06:49:31;;;;;;;3.13;1.30;;;8.40;99.90;;;;;;5038042;28;20168;-85
2022/02/06 06:51:57;;;;;;;3.92;1.63;;;8.40;99.90;;;;;;5037669;28;20169;-80
2022/02/06 06:54:24;;;;;;;4.05;1.27;;;8.50;99.90;;;;;;5038178;28;20736;-86
2022/02/06 06:57:28;;;;;;;3.00;1.40;;;8.50;99.90;;;;;;5004804;28;20620;-86
2022/02/06 07:02:29;;;;;;;2.63;1.80;;;8.50;99.90;;;;;;5025271;28;20239;-80
2022/02/06 07:04:57;;;;;;;3.63;1.50;;;8.40;99.90;;;;;;5046011;28;20172;-86
2022/02/06 07:07:24;;;;;;;8.32;1.65;;;8.40;99.90;;;;;;5038730;28;20262;-86
2022/02/06 07:09:49;;;;;;;6.53;1.63;;;8.40;99.90;;;;;;5038769;28;20168;-86
2022/02/06 07:12:15;;;;;;;4.25;1.77;;;8.40;99.90;;;;;;5021532;28;20286;-78
2022/02/06 07:14:46;;;;;;;5.43;1.80;;;8.40;99.90;;;;;;5040242;28;20189;-86
2022/02/06 07:17:13;;;;;;;3.28;1.67;;;8.50;99.90;;;;;;5021907;28;20179;-84
2022/02/06 07:19:40;;;;;;;11.32;1.67;;;8.50;99.90;;;;;;5021381;28;20259;-85
2022/02/06 07:22:08;;;;;;;6.00;1.75;;;8.50;99.90;;;;;;5035875;28;20617;-83
2022/02/06 07:24:47;;;;;;;2.20;1.38;;;8.50;99.90;;;;;;5036717;28;20168;-77
2022/02/06 07:27:22;;;;;;;6.80;1.63;;;8.40;99.90;;;;;;5034480;28;20168;-85
2022/02/06 07:29:48;;;;;;;2.10;1.55;;;8.40;99.90;;;;;;5035110;28;20200;-77
2022/02/06 07:32:15;;;;;;;6.57;1.50;;;8.50;99.90;;;;;;5032939;28;20204;-77
2022/02/06 07:34:41;;;;;;;6.20;2.03;;;8.50;99.90;;;;;;5033757;28;20188;-86
2022/02/06 07:37:07;;;;;;;5.82;2.20;;;8.60;99.90;;;;;;5034505;28;20164;-81
2022/02/06 07:39:34;;;;;;;2.10;1.55;;;8.50;99.90;;;;;;5017889;28;20186;-80
2022/02/06 07:42:00;;;;;;;2.88;1.45;;;8.40;99.90;;;;;;5035267;28;20198;-79
2022/02/06 07:44:25;;;;;;;3.85;1.23;;;8.50;99.90;;;;;;5037393;28;20168;-82
2022/02/06 07:47:00;;;;;;;3.60;1.40;;;8.40;99.90;;;;;;5037187;28;20620;-84
2022/02/06 07:49:26;;;;;;;5.13;1.80;;;8.50;99.90;;;;;;5049411;28;20171;-85
2022/02/06 07:51:53;;;;;;;2.15;1.83;;;8.50;99.90;;;;;;5025769;28;20179;-78
2022/02/06 07:54:24;;;;;;;5.18;2.13;;;8.60;99.90;;;;;;5057726;28;20192;-77
2022/02/06 07:56:49;;;;;;;4.47;1.88;;;8.60;99.90;;;;;;5009217;28;20176;-80
2022/02/06 07:59:16;;;;;;;7.07;1.70;;;8.50;99.90;;;;;;5037534;28;20171;-85
2022/02/06 08:01:41;;;;;;;2.80;1.00;;;8.60;99.90;;;;;;5037379;28;20168;-82
2022/02/06 08:04:07;;;;;;;6.28;1.60;;;8.60;99.90;;;;;;5038036;28;20245;-84
2022/02/06 08:06:33;;;;;;;4.25;1.10;;;8.50;99.90;;;;;;5037830;28;20229;-85
2022/02/06 08:09:00;;;;;;;2.80;1.33;;;8.50;99.90;;;;;;5019966;28;20703;-85
2022/02/06 08:11:25;;;;;;;5.97;1.55;;;8.60;99.90;;;;;;5037843;28;20164;-81
2022/02/06 08:13:55;;;;;;;1.55;1.20;;;8.60;99.90;;;;;;5019366;28;20868;-78
2022/02/06 08:16:21;;;;;;;2.10;1.45;;;8.70;99.90;;;;;;5037206;28;20167;-81
2022/02/06 08:18:47;;;;;;;3.90;1.73;;;8.60;99.90;;;;;;5036982;28;20172;-78
2022/02/06 08:21:14;;;;;;;7.15;1.65;;;8.70;99.90;;;;;;5039030;28;20156;-81
2022/02/06 08:23:39;;;;;;;2.20;1.50;;;8.60;99.90;;;;;;5036942;28;20230;-85
2022/02/06 08:26:07;;;;;;;5.40;1.35;;;8.60;99.90;;;;;;5019394;28;20175;-76
2022/02/06 08:28:33;;;;;;;3.53;1.65;;;8.60;99.90;;;;;;5036669;28;20251;-79
2022/02/06 08:31:02;;;;;;;3.97;1.50;;;8.70;99.90;;;;;;5036642;28;20175;-82
2022/02/06 08:33:27;;;;;;;4.63;1.38;;;8.60;99.90;;;;;;5018406;28;20250;-81
2022/02/06 08:35:53;;;;;;;8.35;1.80;;;8.60;99.90;;;;;;5018488;28;20195;-84
2022/02/06 08:38:19;;;;;;;2.63;1.42;;;8.60;99.90;;;;;;5035902;28;20172;-81
2022/02/06 08:40:44;;;;;;;5.13;1.20;;;8.60;99.90;;;;;;5038115;28;20172;-86
2022/02/06 08:43:10;;;;;;;2.75;1.20;;;8.60;99.90;;;;;;5035015;28;20188;-78
2022/02/06 08:45:38;;;;;;;5.72;1.17;;;8.60;99.90;;;;;;5035540;28;20258;-79
2022/02/06 08:48:04;;;;;;;2.83;1.25;;;8.60;99.90;;;;;;5036135;28;20531;-85
2022/02/06 08:50:29;;;;;;;1.42;1.10;;;8.60;99.90;;;;;;5019224;28;20314;-82
2022/02/06 08:52:59;;;;;;;4.35;1.30;;;8.70;99.90;;;;;;5017132;28;20306;-77
2022/02/06 08:55:25;;;;;;;2.65;1.35;;;8.70;99.90;;;;;;5036057;28;20621;-81
2022/02/06 08:57:51;;;;;;;3.08;1.50;;;8.70;99.90;;;;;;5035525;28;20250;-78
2022/02/06 09:00:18;;;;;;;6.03;1.10;;;8.70;99.90;;;;;;5035080;28;20242;-78
2022/02/06 09:02:44;;;;;;;3.88;1.10;;;8.60;99.90;;;;;;5017702;28;20651;-78
2022/02/06 09:05:12;;;;;;;3.72;1.23;;;8.60;99.90;;;;;;5045699;28;20188;-78
2022/02/06 09:07:40;;;;;;;5.35;1.17;;;8.60;99.90;;;;;;5053375;28;20180;-78
2022/02/06 09:10:06;;;;;;;9.65;1.98;;;8.70;99.90;;;;;;5041238;28;20222;-78
2022/02/06 09:12:32;;;;;;;2.45;1.48;;;8.70;99.90;;;;;;5035541;28;20207;-78
2022/02/06 09:14:57;;;;;;;1.83;1.15;;;8.80;99.90;;;;;;5038201;28;20679;-81
2022/02/06 09:17:24;;;;;;;4.85;1.33;;;8.70;99.90;;;;;;5055699;28;20179;-77
2022/02/06 09:19:50;;;;;;;1.27;0.82;;;8.80;99.90;;;;;;5029504;28;20179;-79
2022/02/06 09:22:16;;;;;;;3.03;1.30;;;8.80;99.90;;;;;;5046210;28;20215;-77
2022/02/06 09:24:46;;;;;;;1.17;0.80;;;8.90;99.90;;;;;;5041679;28;20172;-79
2022/02/06 09:27:12;;;;;;;1.02;0.90;;;8.80;99.90;;;;;;5040947;28;20164;-79
2022/02/06 09:29:40;;;;;;;1.52;1.02;;;8.90;99.90;;;;;;5055569;28;20171;-79
2022/02/06 09:37:07;;;;;;;2.17;1.00;;;8.70;99.90;;;;;;5034744;28;20633;-78
2022/02/06 09:39:37;;;;;;;3.05;1.23;;;8.70;99.90;;;;;;5017080;28;20548;-78
2022/02/06 09:42:05;;;;;;;3.03;0.75;;;8.70;99.90;;;;;;5032937;28;20221;-78
2022/02/06 09:44:31;;;;;;;4.32;1.00;;;8.90;99.90;;;;;;5019457;28;20172;-78
2022/02/06 09:46:58;;;;;;;2.22;1.10;;;8.90;99.90;;;;;;5034441;28;20645;-78
2022/02/06 09:49:27;;;;;;;2.47;1.02;;;8.90;99.90;;;;;;5034742;28;20628;-79
2022/02/06 09:51:53;;;;;;;2.85;0.98;;;8.90;99.90;;;;;;5034329;28;20179;-79
2022/02/06 09:54:22;;;;;;;2.03;1.13;;;8.90;99.90;;;;;;5035219;28;20166;-78
2022/02/06 09:56:51;;;;;;;4.82;1.10;;;8.80;99.90;;;;;;5017207;28;20195;-79
2022/02/06 09:59:20;;;;;;;3.03;1.17;;;8.80;99.90;;;;;;5024344;28;20629;-78
2022/02/06 10:01:53;;;;;;;2.92;1.00;;;8.90;99.90;;;;;;5037015;28;20164;-79
2022/02/06 10:04:21;;;;;;;7.63;1.15;;;8.90;99.90;;;;;;5029105;28;20205;-82
2022/02/06 10:07:11;;;;;;;1.00;0.88;;;8.90;99.90;;;;;;5043099;28;20168;-80
2022/02/06 10:10:08;;;;;;;5.30;0.90;;;8.90;99.90;;;;;;5037109;28;20176;-79
2022/02/06 10:12:37;;;;;;;3.15;0.70;;;8.90;99.90;;;;;;5036709;28;20219;-77
2022/02/06 10:15:05;;;;;;;2.75;0.90;;;8.90;99.90;;;;;;5004696;28;20194;-77
2022/02/06 10:17:35;;;;;;;1.73;0.90;;;9.00;99.90;;;;;;5054520;28;20182;-79
2022/02/06 10:20:02;;;;;;;5.43;1.10;;;9.00;99.90;;;;;;5037293;28;20194;-77
2022/02/06 10:22:40;;;;;;;1.75;1.10;;;9.00;99.90;;;;;;5036550;28;20202;-79
2022/02/06 10:25:13;;;;;;;1.08;0.82;;;9.10;99.90;;;;;;5055267;28;20152;-78
2022/02/06 10:27:55;;;;;;;3.53;0.68;;;9.10;99.90;;;;;;5036240;28;20175;-78
2022/02/06 10:30:41;;;;;;;2.75;0.90;;;9.10;99.90;;;;;;5042021;28;20655;-87
2022/02/06 10:33:08;;;;;;;0.77;0.77;;;9.00;99.90;;;;;;5033675;28;20579;-79
2022/02/06 10:35:42;;;;;;;2.53;1.02;;;9.00;99.90;;;;;;5033681;28;20171;-83
2022/02/06 10:38:29;;;;;;;2.15;1.33;;;9.00;99.90;;;;;;5036111;28;20211;-79
2022/02/06 10:41:12;;;;;;;1.20;1.10;;;9.00;99.90;;;;;;5038433;28;20168;-79
2022/02/06 10:43:57;;;;;;;1.35;1.08;;;9.10;99.90;;;;;;5020446;28;20195;-79
2022/02/06 10:46:25;;;;;;;0.75;0.75;;;9.10;99.90;;;;;;5036600;28;20159;-79
2022/02/06 10:48:56;;;;;;;1.13;0.90;;;9.10;99.90;;;;;;5033600;28;20167;-79
2022/02/06 10:51:44;;;;;;;0.60;0.60;;;9.10;99.90;;;;;;5040224;28;20180;-79
2022/02/06 10:54:18;;;;;;;0.88;0.75;;;9.10;99.90;;;;;;5035379;28;20221;-80
2022/02/06 10:57:13;;;;;;;1.20;1.10;;;9.10;99.90;;;;;;5015462;28;20175;-84
2022/02/06 10:59:47;;;;;;;0.77;0.75;;;9.20;99.90;;;;;;5033241;28;20179;-81
2022/02/06 11:02:25;;;;;;;2.15;1.00;;;9.20;99.90;;;;;;5015133;28;20199;-79
2022/02/06 11:08:00;;;;;;;3.65;1.15;;;9.20;99.90;;;;;;5032841;28;20172;-79
2022/02/06 11:10:30;;;;;;;0.93;0.80;;;9.20;99.90;;;;;;5033011;28;20170;-88
2022/02/06 11:13:05;;;;;;;0.50;0.50;;;9.20;99.90;;;;;;5032526;28;20208;-79
2022/02/06 11:15:45;;;;;;;0.90;0.82;;;9.20;99.90;;;;;;5033909;28;20168;-78
2022/02/06 11:18:13;;;;;;;1.13;0.80;;;9.20;99.90;;;;;;5033589;28;20164;-79
2022/02/06 11:20:52;;;;;;;1.48;0.80;;;9.30;99.90;;;;;;5015251;28;20533;-77
2022/02/06 11:23:17;;;;;;;4.85;1.05;;;9.30;99.90;;;;;;5033099;28;20211;-78
2022/02/06 11:25:44;;;;;;;1.40;1.02;;;9.40;99.90;;;;;;5033235;28;20174;-77
2022/02/06 11:28:12;;;;;;;9.23;1.23;;;9.50;99.90;;;;;;5015187;28;20229;-80
2022/02/06 11:30:39;;;;;;;4.82;1.23;;;9.60;99.90;;;;;;5033359;28;20242;-80
2022/02/06 11:33:06;;;;;;;2.05;1.23;;;9.70;99.90;;;;;;5032802;28;20207;-77
2022/02/06 11:35:32;;;;;;;5.82;1.15;;;9.80;99.90;;;;;;5037097;28;20168;-77
2022/02/06 11:44:06;;;;;;;6.28;1.67;;;10.30;99.90;;;;;;5059831;28;20206;-88
2022/02/06 11:47:10;;;;;;;7.38;1.90;;;10.50;99.90;;;;;;5044614;28;20195;-84
2022/02/06 11:49:42;;;;;;;4.65;1.67;;;10.50;99.90;;;;;;5047071;28;20179;-82
2022/02/06 11:52:08;;;;;;;5.78;1.25;;;10.60;99.90;;;;;;5051261;28;20186;-83
2022/02/06 11:54:58;;;;;;;7.80;1.13;;;10.60;99.90;;;;;;5038683;28;20167;-81
2022/02/06 11:57:28;;;;;;;7.97;1.45;;;10.60;99.90;;;;;;5049216;28;20187;-80
2022/02/06 12:00:08;;;;;;;2.47;1.02;;;10.50;99.90;;;;;;5046471;28;20179;-81
2022/02/06 12:02:39;;;;;;;6.93;1.20;;;10.40;99.90;;;;;;5043766;28;20180;-79
2022/02/06 12:05:23;;;;;;;4.97;1.30;;;10.30;99.90;;;;;;5051972;28;20202;-81
2022/02/06 12:07:52;;;;;;;7.85;0.70;;;10.00;99.90;;;;;;5063945;28;20641;-84
2022/02/06 12:10:38;;;;;;;1.70;0.63;;;9.80;99.90;;;;;;5023393;28;20267;-81
2022/02/06 12:15:55;;;;;;;2.00;0.70;;;9.60;99.90;;;;;;5042798;28;20176;-81
2022/02/06 12:18:39;;;;;;;3.50;1.55;;;9.50;99.90;;;;;;5039997;28;20184;-82
2022/02/06 12:21:12;;;;;;;8.18;0.98;;;9.40;99.90;;;;;;5038422;28;20175;-85
2022/02/06 12:23:55;;;;;;;5.55;0.98;;;9.30;99.90;;;;;;5035868;28;20208;-81
2022/02/06 12:26:30;;;;;;;3.20;0.63;;;9.40;99.90;;;;;;5025558;28;20278;-81
2022/02/06 12:29:02;;;;;;;3.13;0.73;;;9.40;99.90;;;;;;5035104;28;20194;-80
2022/02/06 12:31:30;;;;;;;2.97;0.80;;;9.40;99.90;;;;;;5048805;28;20179;-81
2022/02/06 12:39:21;;;;;;;1.00;0.57;;;9.20;99.90;;;;;;5048871;28;20802;-84
2022/02/06 12:41:47;;;;;;;0.98;0.65;;;9.10;99.90;;;;;;5044691;28;20172;-82
2022/02/06 12:44:15;;;;;;;0.95;0.60;;;9.00;99.90;;;;;;5025291;28;20705;-82
2022/02/06 12:46:41;;;;;;;3.45;0.90;;;8.90;99.90;;;;;;5047760;28;20515;-82
2022/02/06 12:49:08;;;;;;;0.82;0.50;;;8.80;99.90;;;;;;5044666;28;20163;-80
2022/02/06 12:51:36;;;;;;;1.27;0.40;;;8.80;99.90;;;;;;5030266;28;20172;-82
2022/02/06 12:54:03;;;;;;;1.15;0.60;;;8.70;99.90;;;;;;5047754;28;20214;-82
2022/02/06 12:56:33;;;;;;;0.40;0.40;;;8.60;99.90;;;;;;5053501;28;20179;-82
2022/02/06 12:59:00;;;;;;;6.57;0.70;;;8.60;99.90;;;;;;5028318;28;20178;-82
2022/02/06 13:01:41;;;;;;;2.35;0.80;;;8.60;99.90;;;;;;5042269;28;20194;-82
2022/02/06 13:04:10;;;;;;;0.77;0.68;;;8.60;99.90;;;;;;5037408;28;20178;-82
2022/02/06 13:06:38;;;;;;;2.10;0.93;;;8.60;99.90;;;;;;5038432;28;20186;-83
2022/02/06 13:09:08;;;;;;;2.88;1.10;;;8.60;99.90;;;;;;5023139;28;20167;-82
2022/02/06 13:11:45;;;;;;;3.97;0.88;;;8.70;99.90;;;;;;5047110;28;20198;-83
2022/02/06 13:21:54;;;;;;;10.32;7.43;;;9.20;99.90;;;;;;5043820;28;20235;-81
2022/02/06 13:30:13;;;;;;;3.00;2.47;;;9.40;99.90;;;;;;5047727;28;20179;-83
2022/02/06 13:37:56;;;;;;;6.55;3.10;;;9.40;99.90;;;;;;5051052;28;20183;-81
2022/02/06 13:40:27;;;;;;;5.85;1.63;;;9.40;99.90;;;;;;5036399;28;20187;-82
2022/02/06 13:43:09;;;;;;;2.08;1.23;;;9.50;99.90;;;;;;5036769;28;20195;-80
2022/02/06 13:45:38;;;;;;;3.35;1.23;;;9.50;99.90;;;;;;5048069;28;20178;-79
2022/02/06 13:48:06;;;;;;;5.07;1.17;;;9.70;99.90;;;;;;5047216;28;20170;-79
2022/02/06 13:50:34;;;;;;;3.60;1.08;;;9.70;99.90;;;;;;5048815;28;20196;-79
2022/02/06 13:53:14;;;;;;;5.53;1.23;;;9.80;99.90;;;;;;5042513;28;20198;-82
2022/02/06 13:55:49;;;;;;;6.97;1.60;;;9.80;99.90;;;;;;5044249;28;20238;-83
2022/02/06 13:58:17;;;;;;;3.50;1.17;;;9.90;99.90;;;;;;5043381;28;20147;-83
2022/02/06 14:01:14;;;;;;;5.38;1.65;;;9.90;99.90;;;;;;5031880;28;20167;-79
2022/02/06 14:03:45;;;;;;;17.95;9.52;;;10.00;99.90;;;;;;4965013;28;20206;-84
2022/02/06 14:06:15;;;;;;;9.70;2.72;;;10.20;99.90;;;;;;5045790;28;20182;-81
2022/02/06 14:09:08;;;;;;;9.75;1.98;;;10.30;99.90;;;;;;5027404;28;20187;-83
2022/02/06 14:11:37;;;;;;;6.75;2.10;;;10.30;99.90;;;;;;5047606;28;20243;-81
2022/02/06 14:14:25;;;;;;;9.15;1.55;;;10.30;99.90;;;;;;5028392;28;20726;-84
2022/02/06 14:16:56;;;;;;;9.15;1.70;;;10.20;99.90;;;;;;5042490;28;20179;-83
2022/02/06 14:19:42;;;;;;;6.72;1.50;;;10.40;99.90;;;;;;5023961;28;20226;-82
2022/02/06 14:22:09;;;;;;;6.07;1.80;;;10.40;99.90;;;;;;5031081;28;20557;-82
2022/02/06 14:25:09;;;;;;;4.65;1.40;;;10.50;99.90;;;;;;5022345;28;20175;-81
2022/02/06 14:27:38;;;;;;;6.65;1.60;;;10.50;99.90;;;;;;4987861;28;20179;-80
2022/02/06 14:30:44;;;;;;;9.43;1.77;;;10.50;99.90;;;;;;5027814;28;20180;-81
2022/02/06 14:33:21;;;;;;;10.85;2.58;;;10.60;99.90;;;;;;5052751;28;20223;-82
2022/02/06 14:36:15;;;;;;;8.20;3.30;;;10.50;99.90;;;;;;5049303;28;20171;-81
2022/02/06 14:38:59;;;;;;;9.23;4.05;;;10.40;99.90;;;;;;5043841;28;20207;-80
2022/02/06 14:41:58;;;;;;;12.40;2.72;;;10.50;99.90;;;;;;5056710;28;20159;-81
2022/02/06 14:44:26;;;;;;;6.85;2.60;;;10.40;99.90;;;;;;5065433;28;20170;-83
2022/02/06 14:46:55;;;;;;;12.70;2.67;;;10.50;99.90;;;;;;5053320;28;20155;-84
2022/02/06 14:49:27;;;;;;;6.57;2.20;;;10.40;99.90;;;;;;5060639;28;20168;-80
2022/02/06 14:51:53;;;;;;;5.90;1.13;;;10.40;99.90;;;;;;5024072;28;20262;-88
2022/02/06 14:54:27;;;;;;;10.27;1.88;;;10.40;99.90;;;;;;5054877;28;20213;-83
2022/02/06 14:56:59;;;;;;;6.63;1.70;;;10.50;99.90;;;;;;5032221;28;20172;-80
2022/02/06 14:59:27;;;;;;;14.13;1.98;;;10.50;99.90;;;;;;5028010;28;20219;-81
2022/02/06 15:01:54;;;;;;;8.60;2.38;;;10.60;99.90;;;;;;5025499;28;20636;-80
2022/02/06 15:04:22;;;;;;;7.60;2.08;;;10.70;99.90;;;;;;5040119;28;20167;-79
2022/02/06 15:06:49;;;;;;;13.95;2.28;;;10.60;99.90;;;;;;5042469;28;20237;-79
2022/02/06 15:09:15;;;;;;;13.35;2.88;;;10.70;99.90;;;;;;5021064;28;20195;-78
2022/02/06 15:11:43;;;;;;;10.90;2.00;;;10.70;99.90;;;;;;5038501;28;20417;-78
2022/02/06 15:14:12;;;;;;;7.53;2.83;;;10.70;99.90;;;;;;5049820;28;20242;-78
2022/02/06 15:16:38;;;;;;;11.10;3.63;;;10.60;99.90;;;;;;5034412;28;20199;-81
2022/02/06 15:19:13;;;;;;;8.63;2.25;;;10.60;99.90;;;;;;5031235;28;20245;-78
2022/02/06 15:21:40;;;;;;;5.63;1.90;;;10.60;99.90;;;;;;5019561;28;20209;-78
2022/02/06 15:24:06;;;;;;;3.38;1.65;;;10.60;99.90;;;;;;5036800;28;20183;-89
2022/02/06 15:26:32;;;;;;;3.58;1.42;;;10.60;99.90;;;;;;5036836;28;20632;-79
2022/02/06 15:28:57;;;;;;;3.05;1.70;;;10.60;99.90;;;;;;5036130;28;20214;-78
2022/02/06 15:31:23;;;;;;;6.15;1.73;;;10.60;99.90;;;;;;5038687;28;20175;-78
2022/02/06 15:33:49;;;;;;;13.40;1.15;;;10.70;99.90;;;;;;5019062;28;20257;-79
2022/02/06 15:36:15;;;;;;;8.15;1.65;;;10.70;99.90;;;;;;5037137;28;20199;-88
2022/02/06 15:38:44;;;;;;;11.10;2.42;;;10.50;99.90;;;;;;5037045;28;20203;-79
2022/02/06 15:41:12;;;;;;;4.10;1.80;;;10.50;99.90;;;;;;5017629;28;20201;-88
2022/02/06 15:43:37;;;;;;;7.70;2.47;;;10.40;99.90;;;;;;5031391;28;20223;-89
2022/02/06 15:46:03;;;;;;;4.82;1.35;;;10.30;99.90;;;;;;5019675;28;20210;-77
2022/02/06 15:48:32;;;;;;;8.98;2.15;;;10.20;99.90;;;;;;5035432;28;20232;-78
2022/02/06 15:50:58;;;;;;;10.98;1.77;;;10.30;99.90;;;;;;5034398;28;20246;-78
2022/02/06 15:53:23;;;;;;;5.00;2.33;;;10.30;99.90;;;;;;5021810;28;20207;-78
2022/02/06 15:55:49;;;;;;;10.98;1.92;;;10.20;99.90;;;;;;5037517;28;20199;-78
2022/02/06 15:58:14;;;;;;;8.05;1.77;;;10.20;99.90;;;;;;5036777;28;20180;-78